createdAt,value
2023-01-17T00:00:51.177Z,31.48
2023-01-17T00:03:54.361Z,33.88
2023-01-17T00:09:57.586Z,36.60
2023-01-17T00:12:54.138Z,45.38
2023-01-17T00:15:43.429Z,40.60
2023-01-17T00:18:32.694Z,39.22
2023-01-17T00:21:39.122Z,30.95
2023-01-17T00:24:45.518Z,28.45
2023-01-17T00:27:33.565Z,26.83
2023-01-17T00:30:24.165Z,32.80
2023-01-17T00:33:12.200Z,23.35
2023-01-17T00:36:01.788Z,24.08
2023-01-17T00:38:49.801Z,21.08
2023-01-17T00:41:37.806Z,21.65
2023-01-17T00:44:44.251Z,21.38
2023-01-17T00:47:53.201Z,22.10
2023-01-17T00:50:59.622Z,22.27
2023-01-17T00:54:06.338Z,25.83
2023-01-17T00:57:14.013Z,26.52
2023-01-17T01:00:20.665Z,26.38
2023-01-17T01:03:29.854Z,28.25
2023-01-17T01:06:36.329Z,27.63
2023-01-17T01:09:42.698Z,21.98
2023-01-17T01:12:49.898Z,24.55
2023-01-17T01:16:00.313Z,26.33
2023-01-17T01:19:08.620Z,24.85
2023-01-17T01:22:14.983Z,24.92
2023-01-17T01:25:22.091Z,25.65
2023-01-17T01:28:31.520Z,24.67
2023-01-17T01:31:38.141Z,28.00
2023-01-17T01:34:28.797Z,29.60
2023-01-17T01:37:18.028Z,30.00
2023-01-17T01:40:09.617Z,35.90
2023-01-17T01:43:03.212Z,36.55
2023-01-17T01:45:59.269Z,37.63
2023-01-17T01:48:54.972Z,39.03
2023-01-17T01:51:52.101Z,44.58
2023-01-17T01:54:50.284Z,42.15
2023-01-17T01:57:44.970Z,35.03
2023-01-17T02:00:37.419Z,39.00
2023-01-17T02:03:30.767Z,40.28
2023-01-17T02:06:31.467Z,40.80
2023-01-17T02:09:22.141Z,42.55
2023-01-17T02:12:12.269Z,44.13
2023-01-17T02:15:02.097Z,49.90
2023-01-17T02:18:04.085Z,46.03
2023-01-17T02:21:17.105Z,48.85
2023-01-17T02:25:00.678Z,52.08
2023-01-17T02:28:10.016Z,52.30
2023-01-17T02:31:05.705Z,55.63
2023-01-17T02:34:00.924Z,58.83
2023-01-17T02:37:02.391Z,57.17
2023-01-17T02:39:59.774Z,32.45
2023-01-17T02:42:56.436Z,37.53
2023-01-17T02:45:46.034Z,53.53
2023-01-17T02:48:39.201Z,28.42
2023-01-17T02:52:05.869Z,29.13
2023-01-17T02:55:14.500Z,29.83
2023-01-17T02:58:19.579Z,33.22
2023-01-17T03:01:22.437Z,30.60
2023-01-17T03:04:19.693Z,31.42
2023-01-17T03:07:17.600Z,35.97
2023-01-17T03:10:09.487Z,46.00
2023-01-17T03:13:01.075Z,49.30
2023-01-17T03:15:50.728Z,63.58
2023-01-17T03:18:40.075Z,65.32
2023-01-17T03:21:30.982Z,48.58
2023-01-17T03:24:20.157Z,74.18
2023-01-17T03:27:09.441Z,104.55
2023-01-17T03:29:58.664Z,113.25
2023-01-17T03:32:48.010Z,107.20
2023-01-17T03:35:37.349Z,129.77
2023-01-17T03:38:29.287Z,130.52
2023-01-17T03:41:18.620Z,132.68
2023-01-17T03:44:07.888Z,127.57
2023-01-17T03:46:57.102Z,126.20
2023-01-17T03:49:46.343Z,123.32
2023-01-17T03:52:35.603Z,126.03
2023-01-17T03:55:26.320Z,129.02
2023-01-17T03:58:16.385Z,123.20
2023-01-17T04:01:05.772Z,126.65
2023-01-17T04:03:55.454Z,152.32
2023-01-17T04:06:46.078Z,116.80
2023-01-17T04:09:35.619Z,113.53
2023-01-17T04:12:26.399Z,134.18
2023-01-17T04:15:15.858Z,117.47
2023-01-17T04:18:07.713Z,100.53
2023-01-17T04:20:56.951Z,124.40
2023-01-17T04:23:46.224Z,112.63
2023-01-17T04:26:35.382Z,92.32
2023-01-17T04:29:26.630Z,78.72
2023-01-17T04:32:16.130Z,69.63
2023-01-17T04:35:07.224Z,70.85
2023-01-17T04:37:56.441Z,71.18
2023-01-17T04:40:45.670Z,81.97
2023-01-17T04:43:35.117Z,88.47
2023-01-17T04:46:25.879Z,76.95
2023-01-17T04:49:15.125Z,79.45
2023-01-17T04:52:04.417Z,76.80
2023-01-17T04:54:53.749Z,81.38
2023-01-17T04:57:43.047Z,88.38
2023-01-17T05:00:32.364Z,97.28
2023-01-17T05:03:24.460Z,97.97
2023-01-17T05:06:13.772Z,56.33
2023-01-17T05:09:03.943Z,57.33
2023-01-17T05:11:53.320Z,63.42
2023-01-17T05:14:42.504Z,66.80
2023-01-17T05:17:31.683Z,68.20
2023-01-17T05:20:23.302Z,68.68
2023-01-17T05:23:13.199Z,65.40
2023-01-17T05:26:02.489Z,86.88
2023-01-17T05:28:52.267Z,85.82
2023-01-17T05:31:41.440Z,76.30
2023-01-17T05:34:30.616Z,75.75
2023-01-17T05:37:21.239Z,93.80
2023-01-17T05:40:12.749Z,81.88
2023-01-17T05:43:04.197Z,59.13
2023-01-17T05:45:53.473Z,82.35
2023-01-17T05:48:42.780Z,62.63
2023-01-17T05:51:31.930Z,69.15
2023-01-17T05:54:22.512Z,72.25
2023-01-17T05:57:12.301Z,47.60
2023-01-17T06:00:01.623Z,52.28
2023-01-17T06:02:51.932Z,53.63
2023-01-17T06:05:41.341Z,50.85
2023-01-17T06:08:30.799Z,70.95
2023-01-17T06:11:21.443Z,55.15
2023-01-17T06:14:10.980Z,42.30
2023-01-17T06:17:00.198Z,44.45
2023-01-17T06:19:49.403Z,62.20
2023-01-17T06:22:38.900Z,58.92
2023-01-17T06:25:28.155Z,59.28
2023-01-17T06:28:21.271Z,49.95
2023-01-17T06:34:03.134Z,35.15
2023-01-17T06:36:52.298Z,41.10
2023-01-17T06:39:41.543Z,52.85
2023-01-17T06:42:30.743Z,39.10
2023-01-17T06:45:22.180Z,49.17
2023-01-17T06:48:11.569Z,68.53
2023-01-17T06:51:00.909Z,91.07
2023-01-17T06:53:50.204Z,95.25
2023-01-17T06:56:39.459Z,94.85
2023-01-17T06:59:29.193Z,59.22
2023-01-17T07:02:19.887Z,69.40
2023-01-17T07:05:10.076Z,82.95
2023-01-17T07:07:59.729Z,81.47
2023-01-17T07:10:50.221Z,84.80
2023-01-17T07:13:40.601Z,94.57
2023-01-17T07:16:30.158Z,79.22
2023-01-17T07:19:20.793Z,77.63
2023-01-17T07:22:12.207Z,68.20
2023-01-17T07:25:01.577Z,90.93
2023-01-17T07:27:54.029Z,85.70
2023-01-17T07:30:43.266Z,82.05
2023-01-17T07:33:32.516Z,95.35
2023-01-17T07:36:23.081Z,69.90
2023-01-17T07:39:12.614Z,96.63
2023-01-17T07:42:01.878Z,83.10
2023-01-17T07:44:51.138Z,83.63
2023-01-17T07:47:40.728Z,56.53
2023-01-17T07:50:30.042Z,53.75
2023-01-17T07:53:20.751Z,47.55
2023-01-17T07:56:10.228Z,47.80
2023-01-17T07:58:59.470Z,51.90
2023-01-17T08:01:48.923Z,54.28
2023-01-17T08:04:38.178Z,43.67
2023-01-17T08:07:27.436Z,39.53
2023-01-17T08:10:18.830Z,31.92
2023-01-17T08:13:08.141Z,47.47
2023-01-17T08:15:57.389Z,30.38
2023-01-17T08:18:46.659Z,34.67
2023-01-17T08:21:36.033Z,28.35
2023-01-17T08:24:25.201Z,25.35
2023-01-17T08:27:15.884Z,28.95
2023-01-17T08:30:06.239Z,21.83
2023-01-17T08:32:55.661Z,28.30
2023-01-17T08:35:53.581Z,27.10
2023-01-17T08:38:42.806Z,24.60
2023-01-17T08:41:32.321Z,25.80
2023-01-17T08:44:23.362Z,29.70
2023-01-17T08:47:12.860Z,23.08
2023-01-17T08:50:02.219Z,26.58
2023-01-17T08:52:53.423Z,19.02
2023-01-17T08:55:42.684Z,21.33
2023-01-17T08:58:34.090Z,22.55
2023-01-17T09:01:24.795Z,24.55
2023-01-17T09:04:15.041Z,19.45
2023-01-17T09:07:07.562Z,22.75
2023-01-17T09:09:56.794Z,19.30
2023-01-17T09:12:45.975Z,19.02
2023-01-17T09:15:35.605Z,18.83
2023-01-17T09:18:26.296Z,19.38
2023-01-17T09:21:18.358Z,21.25
2023-01-17T09:24:08.151Z,21.75
2023-01-17T09:26:57.454Z,20.48
2023-01-17T09:29:46.740Z,22.70
2023-01-17T09:32:36.365Z,22.67
2023-01-17T09:35:27.197Z,22.50
2023-01-17T09:38:16.526Z,22.58
2023-01-17T09:41:27.746Z,23.45
2023-01-17T09:44:27.196Z,22.95
2023-01-17T09:47:30.311Z,22.80
2023-01-17T09:53:22.302Z,28.02
2023-01-17T09:56:16.976Z,30.58
2023-01-17T09:59:32.773Z,23.33
2023-01-17T10:02:46.911Z,31.40
2023-01-17T10:05:57.494Z,25.15
2023-01-17T10:09:12.190Z,23.15
2023-01-17T10:12:20.331Z,22.25
2023-01-17T10:16:00.169Z,23.20
2023-01-17T10:19:28.767Z,23.88
2023-01-17T10:22:38.253Z,27.98
2023-01-17T10:25:43.026Z,23.73
2023-01-17T10:28:39.382Z,20.75
2023-01-17T10:31:33.149Z,33.80
2023-01-17T10:34:28.956Z,22.15
2023-01-17T10:37:25.563Z,25.08
2023-01-17T10:40:21.765Z,22.48
2023-01-17T10:43:19.056Z,52.47
2023-01-17T10:46:20.224Z,23.55
2023-01-17T10:49:19.195Z,20.50
2023-01-17T10:52:17.118Z,36.15
2023-01-17T10:55:25.163Z,33.13
2023-01-17T10:58:14.812Z,30.75
2023-01-17T11:01:14.064Z,46.25
2023-01-17T11:04:03.572Z,62.38
2023-01-17T11:07:13.968Z,41.13
2023-01-17T11:10:03.282Z,47.15
2023-01-17T11:12:54.013Z,46.50
2023-01-17T11:15:49.891Z,52.60
2023-01-17T11:18:41.220Z,73.40
2023-01-17T11:21:30.794Z,65.13
2023-01-17T11:24:31.637Z,50.15
2023-01-17T11:27:27.586Z,59.67
2023-01-17T11:30:22.069Z,59.05
2023-01-17T11:33:35.393Z,60.33
2023-01-17T11:36:27.586Z,76.00
2023-01-17T11:39:29.796Z,61.35
2023-01-17T11:42:37.305Z,84.82
2023-01-17T11:45:30.511Z,71.65
2023-01-17T11:48:19.676Z,53.97
2023-01-17T11:51:28.268Z,67.57
2023-01-17T11:54:25.700Z,73.45
2023-01-17T11:57:24.209Z,40.15
2023-01-17T12:00:23.056Z,50.63
2023-01-17T12:03:28.930Z,56.72
2023-01-17T12:06:27.804Z,139.20
2023-01-17T12:09:28.703Z,95.43
2023-01-17T12:12:49.240Z,97.10
2023-01-17T12:15:57.836Z,93.95
2023-01-17T12:18:59.716Z,220.00
2023-01-17T12:22:00.390Z,85.25
2023-01-17T12:25:12.022Z,65.78
2023-01-17T12:28:32.797Z,41.60
2023-01-17T12:31:35.187Z,42.83
2023-01-17T12:34:31.221Z,31.80
2023-01-17T12:37:29.630Z,33.33
2023-01-17T12:40:27.345Z,59.95
2023-01-17T12:43:25.048Z,32.55
2023-01-17T12:46:21.451Z,31.77
2023-01-17T12:49:25.643Z,26.73
2023-01-17T12:52:26.263Z,23.38
2023-01-17T12:55:24.434Z,20.50
2023-01-17T12:58:24.865Z,22.02
2023-01-17T13:01:25.174Z,25.67
2023-01-17T13:04:24.088Z,23.13
2023-01-17T13:07:28.011Z,20.90
2023-01-17T13:10:35.432Z,26.70
2023-01-17T13:13:27.484Z,22.02
2023-01-17T13:16:20.490Z,31.42
2023-01-17T13:19:21.604Z,22.92
2023-01-17T13:22:18.102Z,25.98
2023-01-17T13:25:29.982Z,26.25
2023-01-17T13:28:32.427Z,34.30
2023-01-17T13:31:36.682Z,26.20
2023-01-17T13:35:01.630Z,23.42
2023-01-17T13:38:26.178Z,27.30
2023-01-17T13:41:41.843Z,21.88
2023-01-17T13:44:32.261Z,20.90
2023-01-17T13:47:52.631Z,23.95
2023-01-17T13:50:51.113Z,18.55
2023-01-17T13:53:59.533Z,18.67
2023-01-17T13:56:50.278Z,20.77
2023-01-17T13:59:40.544Z,36.60
2023-01-17T14:02:38.766Z,19.48
2023-01-17T14:05:49.376Z,23.40
2023-01-17T14:08:45.601Z,27.23
2023-01-17T14:11:36.457Z,57.35
2023-01-17T14:14:51.289Z,39.63
2023-01-17T14:18:00.730Z,29.48
2023-01-17T14:21:07.306Z,34.70
2023-01-17T14:24:05.381Z,39.20
2023-01-17T14:26:59.010Z,74.90
2023-01-17T14:29:56.002Z,33.63
2023-01-17T14:33:21.323Z,130.77
2023-01-17T14:36:22.250Z,23.05
2023-01-17T14:39:23.466Z,20.77
2023-01-17T14:42:17.034Z,17.98
2023-01-17T14:45:10.803Z,21.10
2023-01-17T14:48:03.208Z,14.88
2023-01-17T14:50:54.368Z,15.05
2023-01-17T14:53:55.681Z,20.02
2023-01-17T14:56:44.929Z,22.13
2023-01-17T14:59:34.177Z,24.00
2023-01-17T15:02:25.031Z,31.98
2023-01-17T15:05:22.095Z,25.85
2023-01-17T15:08:14.468Z,29.50
2023-01-17T15:11:07.258Z,31.73
2023-01-17T15:13:59.395Z,29.25
2023-01-17T15:16:52.107Z,23.45
2023-01-17T15:19:49.303Z,30.58
2023-01-17T15:22:39.387Z,29.38
2023-01-17T15:25:29.344Z,65.05
2023-01-17T15:28:19.649Z,25.27
2023-01-17T15:31:15.924Z,27.40
2023-01-17T15:34:09.212Z,52.65
2023-01-17T15:37:03.740Z,45.10
2023-01-17T15:39:52.989Z,33.28
2023-01-17T15:42:46.250Z,111.55
2023-01-17T15:45:36.135Z,32.70
2023-01-17T15:48:41.610Z,42.40
2023-01-17T15:51:38.899Z,63.13
2023-01-17T15:54:47.597Z,38.60
2023-01-17T15:57:38.947Z,37.03
2023-01-17T16:00:37.814Z,29.98
2023-01-17T16:03:30.342Z,28.73
2023-01-17T16:06:38.271Z,48.53
2023-01-17T16:09:27.551Z,45.80
2023-01-17T16:12:18.649Z,37.28
2023-01-17T16:15:13.555Z,39.95
2023-01-17T16:18:07.533Z,33.28
2023-01-17T16:21:01.598Z,34.08
2023-01-17T16:23:51.869Z,42.30
2023-01-17T16:26:41.271Z,47.10
2023-01-17T16:29:31.962Z,23.05
2023-01-17T16:32:21.595Z,34.60
2023-01-17T16:35:19.281Z,43.65
2023-01-17T16:38:12.360Z,39.50
2023-01-17T16:44:01.239Z,88.13
2023-01-17T16:46:51.968Z,33.42
2023-01-17T16:49:41.204Z,30.35
2023-01-17T16:52:30.558Z,24.63
2023-01-17T16:55:23.779Z,22.63
2023-01-17T16:58:13.241Z,27.15
2023-01-17T17:01:02.557Z,92.60
2023-01-17T17:03:53.173Z,36.50
2023-01-17T17:06:42.575Z,82.60
2023-01-17T17:09:31.760Z,27.52
2023-01-17T17:12:21.030Z,31.80
2023-01-17T17:15:12.254Z,46.65
2023-01-17T17:18:01.714Z,24.33
2023-01-17T17:20:52.417Z,34.42
2023-01-17T17:23:41.951Z,38.78
2023-01-17T17:26:35.260Z,47.53
2023-01-17T17:29:24.660Z,31.83
2023-01-17T17:32:13.937Z,33.50
2023-01-17T17:35:03.255Z,28.98
2023-01-17T17:37:54.402Z,29.52
2023-01-17T17:40:46.007Z,32.05
2023-01-17T17:43:41.516Z,28.02
2023-01-17T17:46:33.813Z,41.53
2023-01-17T17:49:23.215Z,68.70
2023-01-17T17:52:12.368Z,35.50
2023-01-17T17:55:03.281Z,54.95
2023-01-17T17:57:52.739Z,38.95
2023-01-17T18:00:42.081Z,25.63
2023-01-17T18:03:32.000Z,58.45
2023-01-17T18:06:21.702Z,29.48
2023-01-17T18:09:13.018Z,32.13
2023-01-17T18:12:04.062Z,57.17
2023-01-17T18:14:53.373Z,56.15
2023-01-17T18:17:42.761Z,28.85
2023-01-17T18:20:32.047Z,32.63
2023-01-17T18:23:21.479Z,58.65
2023-01-17T18:26:18.585Z,52.80
2023-01-17T18:29:14.292Z,52.15
2023-01-17T18:32:03.579Z,21.42
2023-01-17T18:34:52.760Z,27.95
2023-01-17T18:37:42.003Z,59.97
2023-01-17T18:40:31.245Z,28.55
2023-01-17T18:43:20.384Z,29.48
2023-01-17T18:46:12.069Z,118.95
2023-01-17T18:49:01.664Z,45.80
2023-01-17T18:51:51.858Z,39.00
2023-01-17T18:54:41.286Z,75.70
2023-01-17T18:57:30.493Z,48.83
2023-01-17T19:00:21.613Z,130.00
2023-01-17T19:03:12.299Z,160.35
2023-01-17T19:06:02.869Z,64.10
2023-01-17T19:08:52.871Z,55.10
2023-01-17T19:11:43.154Z,121.10
2023-01-17T19:14:32.497Z,98.60
2023-01-17T19:17:21.703Z,66.65
2023-01-17T19:20:14.382Z,76.75
2023-01-17T19:23:03.703Z,99.40
2023-01-17T19:25:56.670Z,72.07
2023-01-17T19:28:48.914Z,53.97
2023-01-17T19:31:42.771Z,49.83
2023-01-17T19:34:32.697Z,65.55
2023-01-17T19:37:23.318Z,36.58
2023-01-17T19:40:14.118Z,46.47
2023-01-17T19:43:04.574Z,80.18
2023-01-17T19:45:59.151Z,25.45
2023-01-17T19:48:48.403Z,95.78
2023-01-17T19:51:39.433Z,107.53
2023-01-17T19:54:30.109Z,51.40
2023-01-17T19:57:22.106Z,45.58
2023-01-17T20:00:16.710Z,89.25
2023-01-17T20:03:06.351Z,82.40
2023-01-17T20:05:58.715Z,41.17
2023-01-17T20:08:48.116Z,78.20
2023-01-17T20:11:39.088Z,76.63
2023-01-17T20:14:28.406Z,68.93
2023-01-17T20:17:17.894Z,72.72
2023-01-17T20:20:12.760Z,87.82
2023-01-17T20:23:05.552Z,202.27
2023-01-17T20:25:59.043Z,103.68
2023-01-17T20:28:52.514Z,57.28
2023-01-17T20:31:43.530Z,45.95
2023-01-17T20:34:32.894Z,53.72
2023-01-17T20:37:22.323Z,85.47
2023-01-17T20:40:13.659Z,57.45
2023-01-17T20:43:02.883Z,136.93
2023-01-17T20:45:58.056Z,78.05
2023-01-17T20:48:48.830Z,141.23
2023-01-17T20:51:40.099Z,83.57
2023-01-17T20:54:29.399Z,128.63
2023-01-17T20:57:18.623Z,87.47
2023-01-17T21:00:11.065Z,184.15
2023-01-17T21:03:01.869Z,115.20
2023-01-17T21:05:51.184Z,301.52
2023-01-17T21:08:43.506Z,109.10
2023-01-17T21:11:34.156Z,83.15
2023-01-17T21:14:23.915Z,199.23
2023-01-17T21:17:16.188Z,345.40
2023-01-17T21:20:08.172Z,126.93
2023-01-17T21:22:57.487Z,195.88
2023-01-17T21:25:57.950Z,215.05
2023-01-17T21:28:49.511Z,96.65
2023-01-17T21:31:40.966Z,163.90
2023-01-17T21:34:32.083Z,144.23
2023-01-17T21:37:23.597Z,78.05
2023-01-17T21:40:17.161Z,79.35
2023-01-17T21:43:06.500Z,58.03
2023-01-17T21:45:55.865Z,79.82
2023-01-17T21:48:45.549Z,83.05
2023-01-17T21:51:58.673Z,83.53
2023-01-17T21:55:06.750Z,113.28
2023-01-17T21:58:13.108Z,213.43
2023-01-17T22:01:11.152Z,142.43
2023-01-17T22:04:04.800Z,61.10
2023-01-17T22:06:54.116Z,73.20
2023-01-17T22:09:43.373Z,266.13
2023-01-17T22:12:34.165Z,290.50
2023-01-17T22:15:23.993Z,119.90
2023-01-17T22:18:15.842Z,89.68
2023-01-17T22:21:08.419Z,48.78
2023-01-17T22:23:59.516Z,38.75
2023-01-17T22:26:48.864Z,48.63
2023-01-17T22:29:39.632Z,143.18
2023-01-17T22:32:28.948Z,131.98
2023-01-17T22:35:18.290Z,58.40
2023-01-17T22:38:07.905Z,123.13
2023-01-17T22:41:07.971Z,81.00
2023-01-17T22:44:02.171Z,72.43
2023-01-17T22:46:52.761Z,72.80
2023-01-17T22:49:42.044Z,64.45
2023-01-17T22:52:31.335Z,50.75
2023-01-17T22:55:21.677Z,65.00
2023-01-17T22:58:11.004Z,42.97
2023-01-17T23:01:06.642Z,105.70
2023-01-17T23:04:00.316Z,81.65
2023-01-17T23:06:49.635Z,29.65
2023-01-17T23:09:38.908Z,55.45
2023-01-17T23:12:28.169Z,37.85
2023-01-17T23:15:40.670Z,134.93
2023-01-17T23:18:47.372Z,53.08
2023-01-17T23:21:55.588Z,45.50
2023-01-17T23:24:47.748Z,155.00
2023-01-17T23:27:56.644Z,59.17
2023-01-17T23:30:48.006Z,226.68
2023-01-17T23:33:37.266Z,86.50
2023-01-17T23:36:26.409Z,88.43
2023-01-17T23:39:17.515Z,38.97
2023-01-17T23:42:32.914Z,90.38
2023-01-17T23:45:22.197Z,64.70
2023-01-17T23:48:11.769Z,144.95
2023-01-17T23:51:08.035Z,98.10
2023-01-17T23:54:05.346Z,93.40
2023-01-17T23:56:56.128Z,183.63
2023-01-17T23:59:45.468Z,97.07
